createdAt,value
2019-03-10T00:01:34.198Z,85.89
2019-03-10T00:04:07.108Z,84.92
2019-03-10T00:06:38.090Z,83.50
2019-03-10T00:09:09.723Z,82.74
2019-03-10T00:11:40.431Z,80.52
2019-03-10T00:14:11.522Z,81.34
2019-03-10T00:16:42.178Z,81.16
2019-03-10T00:19:13.896Z,79.62
2019-03-10T00:21:44.658Z,78.97
2019-03-10T00:24:15.449Z,77.25
2019-03-10T00:26:45.884Z,76.94
2019-03-10T00:29:16.379Z,75.40
2019-03-10T00:31:46.853Z,73.93
2019-03-10T00:34:17.485Z,78.43
2019-03-10T09:24:58.016Z,87.06
2019-03-10T09:47:08.213Z,87.06
2019-03-10T09:50:04.111Z,87.06
2019-03-10T09:53:00.829Z,52.18
2019-03-10T09:55:45.903Z,52.07
2019-03-10T09:58:34.869Z,52.51
2019-03-10T10:01:38.042Z,52.56
2019-03-10T10:04:30.388Z,51.66
2019-03-10T10:07:34.897Z,52.36
2019-03-10T10:10:27.715Z,52.37
2019-03-10T10:13:16.501Z,52.53
2019-03-10T10:16:03.379Z,52.86
2019-03-10T10:18:48.513Z,51.94
2019-03-10T10:21:40.961Z,51.90
2019-03-10T10:24:30.528Z,52.23
2019-03-10T10:27:13.640Z,52.27
2019-03-10T10:30:01.944Z,52.09
2019-03-10T10:32:39.575Z,50.58
2019-03-10T10:35:27.795Z,51.13
2019-03-10T10:38:18.917Z,50.89
2019-03-10T10:41:10.446Z,50.77
2019-03-10T10:44:08.171Z,50.18
2019-03-10T10:47:09.692Z,49.70
2019-03-10T10:50:02.228Z,50.08
2019-03-10T10:52:50.099Z,50.60
2019-03-10T10:55:41.362Z,50.20
2019-03-10T10:58:39.212Z,49.87
2019-03-10T11:01:28.576Z,49.51
2019-03-10T11:04:24.907Z,49.76
2019-03-10T11:07:16.654Z,49.68
2019-03-10T11:09:56.914Z,49.49
2019-03-10T11:12:55.345Z,49.30
2019-03-10T11:15:48.119Z,48.92
2019-03-10T11:18:36.050Z,49.29
2019-03-10T11:21:15.815Z,48.42
2019-03-10T11:24:14.494Z,48.98
2019-03-10T11:27:06.567Z,49.28
2019-03-10T11:29:45.734Z,48.15
2019-03-10T11:32:24.844Z,49.02
2019-03-10T11:35:05.741Z,50.50
2019-03-10T11:38:04.699Z,50.24
2019-03-10T11:41:12.451Z,49.52
2019-03-10T11:43:51.926Z,50.24
2019-03-10T11:46:33.420Z,50.20
2019-03-10T11:49:28.940Z,49.83
2019-03-10T11:52:10.757Z,49.95
2019-03-10T11:55:06.431Z,50.14
2019-03-10T11:57:45.117Z,50.37
2019-03-10T12:00:25.823Z,49.13
2019-03-10T12:03:15.762Z,49.82
2019-03-10T12:06:08.054Z,47.11
2019-03-10T12:09:12.776Z,47.91
2019-03-10T12:11:43.239Z,48.14
2019-03-10T12:14:14.223Z,45.14
2019-03-10T12:17:16.036Z,46.63
2019-03-10T12:19:51.633Z,48.02
2019-03-10T12:22:24.409Z,47.92
2019-03-10T12:24:57.804Z,46.95
2019-03-10T12:27:29.645Z,47.08
2019-03-10T12:30:02.519Z,47.36
2019-03-10T12:32:34.263Z,48.29
2019-03-10T12:35:06.553Z,49.43
2019-03-10T12:37:38.411Z,50.34
2019-03-10T12:40:10.614Z,50.87
2019-03-10T12:42:42.337Z,51.40
2019-03-10T12:45:14.322Z,53.07
2019-03-10T12:47:46.018Z,53.68
2019-03-10T12:50:18.865Z,55.71
2019-03-10T12:52:50.559Z,56.32
2019-03-10T12:55:22.899Z,56.46
2019-03-10T12:57:54.601Z,56.71
2019-03-10T13:00:26.632Z,57.84
2019-03-10T13:02:58.282Z,58.44
2019-03-10T13:05:29.922Z,59.66
2019-03-10T13:08:01.620Z,60.51
2019-03-10T13:10:33.240Z,61.08
2019-03-10T13:13:06.146Z,62.08
2019-03-10T13:15:37.903Z,62.23
2019-03-10T13:18:09.775Z,62.77
2019-03-10T13:20:41.451Z,65.12
2019-03-10T13:23:13.213Z,66.38
2019-03-10T13:25:45.038Z,67.18
2019-03-10T13:28:17.130Z,67.06
2019-03-10T13:30:49.095Z,67.18
2019-03-10T13:33:20.917Z,67.49
2019-03-10T13:35:52.555Z,68.46
2019-03-10T13:38:24.354Z,69.02
2019-03-10T13:40:56.091Z,69.86
2019-03-10T13:43:27.737Z,71.37
2019-03-10T13:45:59.548Z,72.36
2019-03-10T13:48:31.310Z,73.91
2019-03-10T13:51:03.293Z,74.80
2019-03-10T13:53:35.023Z,76.49
2019-03-10T13:56:06.807Z,77.66
2019-03-10T13:58:38.678Z,78.36
2019-03-10T14:01:10.534Z,78.88
2019-03-10T14:03:42.672Z,79.27
2019-03-10T14:06:14.576Z,79.45
2019-03-10T14:08:46.328Z,80.40
2019-03-10T14:11:17.994Z,80.92
2019-03-10T14:13:49.727Z,81.25
2019-03-10T14:16:21.601Z,81.20
2019-03-10T14:18:53.309Z,81.27
2019-03-10T14:21:25.080Z,81.44
2019-03-10T14:23:56.845Z,81.79
2019-03-10T14:26:28.623Z,81.13
2019-03-10T14:29:00.334Z,81.54
2019-03-10T14:31:32.093Z,81.75
2019-03-10T14:34:03.829Z,80.35
2019-03-10T14:36:35.632Z,80.69
2019-03-10T14:39:08.835Z,80.69
2019-03-10T14:41:40.822Z,80.57
2019-03-10T14:44:12.414Z,80.36
2019-03-10T14:46:48.119Z,80.66
2019-03-10T14:49:23.480Z,81.03
2019-03-10T14:51:53.582Z,79.87
2019-03-10T14:54:25.747Z,79.88
2019-03-10T14:56:57.359Z,80.36
2019-03-10T14:59:29.054Z,80.26
2019-03-10T15:02:00.704Z,80.36
2019-03-10T15:04:32.471Z,80.16
2019-03-10T15:07:04.267Z,80.50
2019-03-10T15:09:35.942Z,80.50
2019-03-10T15:12:07.731Z,79.95
2019-03-10T15:14:39.357Z,80.35
2019-03-10T15:17:11.086Z,79.94
2019-03-10T15:19:43.695Z,80.55
2019-03-10T15:22:15.326Z,80.62
2019-03-10T15:24:47.199Z,80.07
2019-03-10T15:27:23.343Z,80.36
2019-03-10T15:29:52.287Z,80.59
2019-03-10T15:32:23.938Z,80.51
2019-03-10T15:34:55.717Z,80.97
2019-03-10T15:37:27.327Z,80.69
2019-03-10T15:39:58.978Z,80.55
2019-03-10T15:42:30.741Z,80.01
2019-03-10T15:45:02.530Z,79.70
2019-03-10T15:47:35.207Z,79.71
2019-03-10T15:50:10.913Z,78.99
2019-03-10T15:52:42.542Z,78.99
2019-03-10T15:55:14.457Z,78.49
2019-03-10T15:57:50.651Z,78.66
2019-03-10T16:00:20.571Z,78.87
2019-03-10T16:02:52.389Z,78.51
2019-03-10T16:05:24.120Z,78.14
2019-03-10T16:07:55.854Z,78.06
2019-03-10T16:10:27.436Z,77.62
2019-03-10T16:12:59.187Z,77.16
2019-03-10T16:15:30.857Z,77.13
2019-03-10T16:18:02.827Z,77.31
2019-03-10T16:20:34.779Z,76.97
2019-03-10T16:23:06.929Z,77.39
2019-03-10T16:25:38.654Z,77.51
2019-03-10T16:28:10.573Z,77.36
2019-03-10T16:30:42.284Z,77.15
2019-03-10T16:33:14.441Z,77.19
2019-03-10T16:35:46.245Z,76.99
2019-03-10T16:38:18.097Z,76.93
2019-03-10T16:40:50.092Z,77.06
2019-03-10T16:43:22.023Z,77.08
2019-03-10T16:45:53.677Z,77.53
2019-03-10T16:48:26.012Z,77.21
2019-03-10T16:50:57.874Z,77.43
2019-03-10T16:53:29.502Z,76.72
2019-03-10T16:56:03.120Z,77.18
2019-03-10T16:58:34.637Z,77.37
2019-03-10T17:01:07.465Z,77.01
2019-03-10T17:03:39.326Z,77.38
2019-03-10T17:06:11.461Z,76.83
2019-03-10T17:08:43.219Z,76.93
2019-03-10T17:11:16.352Z,77.07
2019-03-10T17:13:48.006Z,77.20
2019-03-10T17:16:20.885Z,77.20
2019-03-10T17:18:52.475Z,77.56
2019-03-10T17:21:24.252Z,77.46
2019-03-10T17:23:56.052Z,77.46
2019-03-10T17:26:28.876Z,77.49
2019-03-10T17:29:01.180Z,77.29
2019-03-10T17:31:32.829Z,77.28
2019-03-10T17:34:04.587Z,77.20
2019-03-10T17:36:36.335Z,77.16
2019-03-10T17:39:08.433Z,77.26
2019-03-10T17:41:40.195Z,77.08
2019-03-10T17:44:12.923Z,76.82
2019-03-10T17:46:44.808Z,76.73
2019-03-10T17:49:16.481Z,76.71
2019-03-10T17:51:48.554Z,76.68
2019-03-10T17:54:20.214Z,76.53
2019-03-10T17:56:51.914Z,76.25
2019-03-10T17:59:23.787Z,76.10
2019-03-10T18:01:55.407Z,75.99
2019-03-10T18:04:27.121Z,75.90
2019-03-10T18:06:58.781Z,75.78
2019-03-10T18:09:30.731Z,75.79
2019-03-10T18:12:02.719Z,75.51
2019-03-10T18:14:34.442Z,75.60
2019-03-10T18:17:06.063Z,75.52
2019-03-10T18:19:37.762Z,75.72
2019-03-10T18:22:09.357Z,76.04
2019-03-10T18:24:48.570Z,76.42
2019-03-10T18:27:20.260Z,76.35
2019-03-10T18:29:53.719Z,76.19
2019-03-10T18:32:25.456Z,75.97
2019-03-10T18:34:57.099Z,76.03
2019-03-10T18:37:32.831Z,76.27
2019-03-10T18:40:03.204Z,76.53
2019-03-10T18:42:35.169Z,76.49
2019-03-10T18:45:07.648Z,76.63
2019-03-10T18:47:39.618Z,76.88
2019-03-10T18:50:12.507Z,77.04
2019-03-10T18:52:44.195Z,77.27
2019-03-10T18:55:16.703Z,77.11
2019-03-10T18:57:49.486Z,76.89
2019-03-10T19:00:22.611Z,76.70
2019-03-10T19:02:54.192Z,76.38
2019-03-10T19:05:26.055Z,76.05
2019-03-10T19:07:57.898Z,75.91
2019-03-10T19:10:29.516Z,75.68
2019-03-10T19:13:01.202Z,75.75
2019-03-10T19:15:32.909Z,75.80
2019-03-10T19:18:04.505Z,75.79
2019-03-10T19:20:36.264Z,75.95
2019-03-10T19:23:07.982Z,76.05
2019-03-10T19:25:39.959Z,76.32
2019-03-10T19:28:11.852Z,76.56
2019-03-10T19:30:43.812Z,76.51
2019-03-10T19:33:15.601Z,76.78
2019-03-10T19:35:47.338Z,76.84
2019-03-10T19:38:19.244Z,77.07
2019-03-10T19:40:51.117Z,77.24
2019-03-10T19:43:22.935Z,77.45
2019-03-10T19:45:55.050Z,77.61
2019-03-10T19:48:27.112Z,77.78
2019-03-10T19:50:58.868Z,77.80
2019-03-10T19:53:30.634Z,77.83
2019-03-10T19:56:04.128Z,77.90
2019-03-10T19:58:37.013Z,78.42
2019-03-10T20:01:08.857Z,78.83
2019-03-10T20:03:40.596Z,79.42
2019-03-10T20:06:12.553Z,79.93
2019-03-10T20:08:44.962Z,79.98
2019-03-10T20:11:16.758Z,79.81
2019-03-10T20:13:48.607Z,80.13
2019-03-10T20:16:20.402Z,80.15
2019-03-10T20:18:52.259Z,80.40
2019-03-10T20:21:24.321Z,80.49
2019-03-10T20:23:56.042Z,81.11
2019-03-10T20:26:27.846Z,81.73
2019-03-10T20:29:00.129Z,82.23
2019-03-10T20:31:31.887Z,82.74
2019-03-10T20:34:03.842Z,83.21
2019-03-10T20:36:37.942Z,83.57
2019-03-10T20:39:10.965Z,84.21
2019-03-10T20:41:43.256Z,84.54
2019-03-10T20:44:15.155Z,84.88
2019-03-10T20:46:47.340Z,85.10
2019-03-10T20:49:19.240Z,84.98
2019-03-10T20:51:51.178Z,84.94
2019-03-10T20:54:23.015Z,84.83
2019-03-10T20:56:56.344Z,84.78
2019-03-10T20:59:30.042Z,84.54
2019-03-10T21:02:03.511Z,84.02
2019-03-10T21:04:35.959Z,84.07
2019-03-10T21:07:10.125Z,84.04
2019-03-10T21:09:44.598Z,83.53
2019-03-10T21:12:18.066Z,83.32
2019-03-10T21:14:50.880Z,83.60
2019-03-10T21:17:23.018Z,83.44
2019-03-10T21:19:55.085Z,84.54
2019-03-10T21:22:28.781Z,86.90
2019-03-10T21:25:03.067Z,86.90
2019-03-10T21:27:35.190Z,88.23
2019-03-10T21:30:13.326Z,87.61
2019-03-10T21:32:45.796Z,88.81
2019-03-10T21:35:18.617Z,90.34
2019-03-10T21:37:52.009Z,91.13
2019-03-10T21:40:25.143Z,90.88
2019-03-10T21:42:56.915Z,91.34
2019-03-10T21:45:28.557Z,91.51
2019-03-10T21:48:00.412Z,91.28
2019-03-10T21:50:32.360Z,90.97
2019-03-10T21:53:04.156Z,90.85
2019-03-10T21:55:35.940Z,91.13
2019-03-10T21:58:07.789Z,90.66
2019-03-10T22:00:39.530Z,90.17
2019-03-10T22:03:12.484Z,91.62
2019-03-10T22:05:44.292Z,91.72
2019-03-10T22:08:16.192Z,92.40
2019-03-10T22:10:47.972Z,92.50
2019-03-10T22:13:19.577Z,91.62
2019-03-10T22:15:51.196Z,90.90
2019-03-10T22:18:23.023Z,89.93
2019-03-10T22:20:54.721Z,88.12
2019-03-10T22:23:26.453Z,87.12
2019-03-10T22:25:58.150Z,86.49
2019-03-10T22:28:30.108Z,86.13
2019-03-10T22:31:01.832Z,82.83
2019-03-10T22:33:33.558Z,82.83
2019-03-10T22:36:06.113Z,82.44
2019-03-10T22:38:37.687Z,81.23
2019-03-10T22:41:10.963Z,80.17
2019-03-10T22:43:42.701Z,79.04
2019-03-10T22:46:16.909Z,78.38
2019-03-10T22:48:48.842Z,75.86
2019-03-10T22:51:22.216Z,72.15
2019-03-10T22:53:54.366Z,72.38
2019-03-10T22:56:26.279Z,71.96
2019-03-10T22:58:58.061Z,71.03
2019-03-10T23:01:30.147Z,69.83
2019-03-10T23:04:03.041Z,67.85
2019-03-10T23:06:35.195Z,66.46
2019-03-10T23:09:08.349Z,63.60
2019-03-10T23:11:41.844Z,62.23
2019-03-10T23:14:15.542Z,63.20
2019-03-10T23:16:47.698Z,63.71
2019-03-10T23:19:19.487Z,64.95
2019-03-10T23:21:51.077Z,66.27
2019-03-10T23:24:24.383Z,67.53
2019-03-10T23:26:56.158Z,69.64
2019-03-10T23:29:28.712Z,70.59
2019-03-10T23:32:00.656Z,70.65
2019-03-10T23:34:32.348Z,70.29
2019-03-10T23:37:05.089Z,70.90
2019-03-10T23:39:37.011Z,70.06
2019-03-10T23:42:08.695Z,69.56
2019-03-10T23:44:41.613Z,68.99
2019-03-10T23:47:13.900Z,68.93
2019-03-10T23:49:45.800Z,67.88
2019-03-10T23:52:18.107Z,67.77
2019-03-10T23:54:49.942Z,67.84
2019-03-10T23:57:21.605Z,68.54
2019-03-10T23:59:53.399Z,69.35
